Time;durP1;ratioP1;P1;durP2;ratioP2;P2;SDS_P1;SDS_P2;PMS_P1;PMS_P2;Temp;Humidity;BMP_temperature;BMP_pressure;BME280_temperature;BME280_humidity;BME280_pressure;Samples;Min_cycle;Max_cycle;Signal;HPM_P1;HPM_P2
2022/04/05 00:00:24;;;;;;;;;;;;;;;3.43;65.08;96044.91;4883231;29;20022;-77
2022/04/05 00:02:50;;;;;;;;;;;;;;;3.45;64.93;96053.28;4883276;29;19985;-77
2022/04/05 00:05:17;;;;;;;;;;;;;;;3.45;63.28;96018.81;4883165;29;19956;-76
2022/04/05 00:07:43;;;;;;;;;;;;;;;3.46;64.59;96035.94;4883530;29;19975;-76
2022/04/05 00:10:09;;;;;;;;;;;;;;;3.48;64.15;96021.00;4883454;29;19972;-76
2022/04/05 00:12:35;;;;;;;;;;;;;;;3.46;64.16;96015.19;4866619;29;19958;-76
2022/04/05 00:15:01;;;;;;;;;;;;;;;3.48;64.45;96023.59;4883095;29;20501;-76
2022/04/05 00:17:27;;;;;;;;;;;;;;;3.45;65.10;96017.00;4883105;29;19957;-77
2022/04/05 00:19:53;;;;;;;;;;;;;;;3.46;64.85;96010.03;4882831;29;20392;-76
2022/04/05 00:22:19;;;;;;;;;;;;;;;3.48;64.08;95999.47;4883027;29;19966;-77
2022/04/05 00:24:45;;;;;;;;;;;;;;;3.49;64.16;95995.91;4883128;29;19959;-76
2022/04/05 00:27:11;;;;;;;;;;;;;;;3.50;64.37;95992.31;4882827;29;19958;-77
2022/04/05 00:29:36;;;;;;;;;;;;;;;3.50;64.59;95989.72;4866250;29;20002;-76
2022/04/05 00:32:02;;;;;;;;;;;;;;;3.48;64.72;95976.94;4882782;29;19958;-76
2022/04/05 00:34:29;;;;;;;;;;;;;;;3.48;64.30;95968.38;4882872;29;20361;-76
2022/04/05 00:36:56;;;;;;;;;;;;;;;3.49;64.46;95959.63;4882690;29;19957;-76
2022/04/05 00:39:22;;;;;;;;;;;;;;;3.48;64.91;95960.59;4863791;29;19972;-76
2022/04/05 00:41:48;;;;;;;;;;;;;;;3.48;64.84;95969.16;4882793;29;19957;-77
2022/04/05 00:44:14;;;;;;;;;;;;;;;3.47;64.73;95959.00;4882940;29;19966;-76
2022/04/05 00:46:40;;;;;;;;;;;;;;;3.49;64.31;95957.81;4866076;29;20330;-77
2022/04/05 00:49:07;;;;;;;;;;;;;;;3.50;64.09;95961.22;4882403;29;19964;-76
2022/04/05 00:51:33;;;;;;;;;;;;;;;3.49;64.42;95963.00;4882476;29;19967;-76
2022/04/05 00:54:03;;;;;;;;;;;;;;;3.49;63.92;95960.41;4882449;29;19973;-76
2022/04/05 00:56:30;;;;;;;;;;;;;;;3.49;64.61;95968.19;4882479;29;19960;-76
2022/04/05 00:58:58;;;;;;;;;;;;;;;3.51;64.11;95963.63;4882719;29;19956;-76
2022/04/05 01:01:26;;;;;;;;;;;;;;;3.53;64.06;95966.84;4882245;29;19960;-76
2022/04/05 01:03:53;;;;;;;;;;;;;;;3.53;64.09;95959.06;4881298;29;19990;-77
2022/04/05 01:06:22;;;;;;;;;;;;;;;3.55;64.24;95958.84;4882248;29;19976;-77
2022/04/05 01:08:49;;;;;;;;;;;;;;;3.56;64.42;95968.25;4882307;29;19969;-78
2022/04/05 01:11:15;;;;;;;;;;;;;;;3.56;63.57;95960.47;4871259;29;19968;-76
2022/04/05 01:13:41;;;;;;;;;;;;;;;3.55;64.42;95959.69;4882114;29;20424;-76
2022/04/05 01:16:07;;;;;;;;;;;;;;;3.55;64.24;95972.66;4882415;29;20416;-76
2022/04/05 01:18:34;;;;;;;;;;;;;;;3.55;63.98;95972.66;4881710;29;19996;-76
2022/04/05 01:21:00;;;;;;;;;;;;;;;3.57;64.13;95964.66;4882000;29;19963;-76
2022/04/05 01:23:26;;;;;;;;;;;;;;;3.57;63.83;95957.69;4882024;29;19961;-76
2022/04/05 01:25:52;;;;;;;;;;;;;;;3.57;64.05;95962.06;4881716;29;19947;-76
2022/04/05 01:28:19;;;;;;;;;;;;;;;3.57;64.11;95956.88;4882329;29;19973;-76
2022/04/05 01:30:45;;;;;;;;;;;;;;;3.55;64.40;95959.69;4881770;29;19964;-76
2022/04/05 01:33:11;;;;;;;;;;;;;;;3.56;63.94;95956.09;4881796;29;20353;-75
2022/04/05 01:35:37;;;;;;;;;;;;;;;3.56;64.19;95953.50;4881864;29;19987;-76
2022/04/05 01:38:03;;;;;;;;;;;;;;;3.55;64.51;95951.06;4881569;29;20380;-76
2022/04/05 01:40:29;;;;;;;;;;;;;;;3.56;64.31;95956.09;4881669;29;19997;-76
2022/04/05 01:42:55;;;;;;;;;;;;;;;3.57;64.59;95954.28;4881515;29;19958;-76
2022/04/05 01:45:22;;;;;;;;;;;;;;;3.55;64.83;95967.47;4881561;29;19949;-76
2022/04/05 01:47:48;;;;;;;;;;;;;;;3.54;64.89;95965.03;4864814;29;19989;-76
2022/04/05 01:50:13;;;;;;;;;;;;;;;3.53;65.02;95969.44;4881623;29;20439;-76
2022/04/05 01:52:39;;;;;;;;;;;;;;;3.52;65.14;95957.44;4881374;29;19960;-76
2022/04/05 01:55:06;;;;;;;;;;;;;;;3.53;65.25;95956.47;4881997;29;19979;-76
2022/04/05 01:57:32;;;;;;;;;;;;;;;3.54;65.48;95968.44;4881394;29;19961;-76
2022/04/05 01:59:58;;;;;;;;;;;;;;;3.52;64.88;95961.84;4881377;29;19961;-76
2022/04/05 02:02:24;;;;;;;;;;;;;;;3.51;65.28;95957.63;4881317;29;20005;-76
2022/04/05 02:04:49;;;;;;;;;;;;;;;3.51;65.81;95957.63;4881166;29;19995;-76
2022/04/05 02:07:19;;;;;;;;;;;;;;;3.50;65.52;95946.44;4881323;29;20003;-76
2022/04/05 02:09:47;;;;;;;;;;;;;;;3.51;65.01;95935.13;4881116;29;19963;-76
2022/04/05 02:12:13;;;;;;;;;;;;;;;3.52;65.32;95954.06;4881212;29;19965;-76
2022/04/05 02:14:39;;;;;;;;;;;;;;;3.52;65.69;95946.28;4880604;29;20386;-78
2022/04/05 02:17:05;;;;;;;;;;;;;;;3.50;65.91;95946.44;4881167;29;19962;-76
2022/04/05 02:19:31;;;;;;;;;;;;;;;3.50;65.92;95930.91;4881337;29;19994;-76
2022/04/05 02:21:57;;;;;;;;;;;;;;;3.51;65.58;95934.28;4880699;29;20391;-76
2022/04/05 02:24:23;;;;;;;;;;;;;;;3.51;65.48;95929.09;4880932;29;20009;-76
2022/04/05 02:26:49;;;;;;;;;;;;;;;3.50;66.02;95930.91;4881614;29;19959;-76
2022/04/05 02:29:15;;;;;;;;;;;;;;;3.50;66.22;95935.28;4880794;29;19957;-76
2022/04/05 02:31:41;;;;;;;;;;;;;;;3.49;65.83;95929.31;4880893;29;19982;-76
2022/04/05 02:34:08;;;;;;;;;;;;;;;3.49;65.99;95933.69;4880595;29;20438;-75
2022/04/05 02:36:34;;;;;;;;;;;;;;;3.48;66.11;95932.09;4880722;29;19984;-76
2022/04/05 02:39:00;;;;;;;;;;;;;;;3.47;66.17;95931.28;4880811;29;20317;-76
2022/04/05 02:41:27;;;;;;;;;;;;;;;3.45;66.47;95918.50;4880630;29;19968;-76
2022/04/05 02:43:52;;;;;;;;;;;;;;;3.47;66.30;95923.50;4880796;29;19954;-76
2022/04/05 02:46:19;;;;;;;;;;;;;;;3.48;65.68;95921.72;4880482;29;20073;-75
2022/04/05 02:48:46;;;;;;;;;;;;;;;3.48;66.41;95932.09;4880239;29;20317;-76
2022/04/05 02:51:12;;;;;;;;;;;;;;;3.47;65.73;95928.69;4880525;29;19967;-76
2022/04/05 02:53:38;;;;;;;;;;;;;;;3.45;65.47;95921.09;4880194;29;19962;-76
2022/04/05 02:56:04;;;;;;;;;;;;;;;3.46;65.39;95921.88;4880302;29;19979;-75
2022/04/05 02:58:30;;;;;;;;;;;;;;;3.46;65.50;95924.47;4880628;29;20456;-76
2022/04/05 03:00:56;;;;;;;;;;;;;;;3.44;65.23;95918.69;4880286;29;20416;-75
2022/04/05 03:03:22;;;;;;;;;;;;;;;3.45;65.03;95920.31;4880318;29;19967;-75
2022/04/05 03:05:48;;;;;;;;;;;;;;;3.49;65.26;95923.34;4880108;29;19961;-77
2022/04/05 03:08:14;;;;;;;;;;;;;;;3.50;66.26;95930.09;4880156;29;19967;-75
2022/04/05 03:10:39;;;;;;;;;;;;;;;3.50;65.01;95909.38;4880251;29;19967;-77
2022/04/05 03:13:06;;;;;;;;;;;;;;;3.52;65.08;95905.59;4880219;29;19960;-76
2022/04/05 03:15:32;;;;;;;;;;;;;;;3.52;65.29;95903.00;4880111;29;20041;-76
2022/04/05 03:17:58;;;;;;;;;;;;;;;3.53;64.70;95907.22;4879700;29;19966;-76
2022/04/05 03:20:24;;;;;;;;;;;;;;;3.53;64.49;95901.19;4879881;29;19970;-75
2022/04/05 03:22:52;;;;;;;;;;;;;;;3.54;64.63;95895.84;4880147;29;20322;-75
2022/04/05 03:25:17;;;;;;;;;;;;;;;3.55;64.36;95894.03;4880258;29;19971;-76
2022/04/05 03:27:43;;;;;;;;;;;;;;;3.57;64.36;95887.72;4879225;29;19960;-75
2022/04/05 03:30:10;;;;;;;;;;;;;;;3.56;64.16;95896.44;4879893;29;20036;-75
2022/04/05 03:32:36;;;;;;;;;;;;;;;3.57;64.41;95898.06;4879873;29;19962;-76
2022/04/05 03:35:03;;;;;;;;;;;;;;;3.56;64.43;95899.03;4879994;29;20005;-75
2022/04/05 03:37:29;;;;;;;;;;;;;;;3.58;64.47;95906.66;4879919;29;19962;-76
2022/04/05 03:39:55;;;;;;;;;;;;;;;3.60;64.25;95902.06;4879749;29;20472;-75
2022/04/05 03:42:21;;;;;;;;;;;;;;;3.59;64.66;95909.06;4879844;29;20004;-76
2022/04/05 03:44:47;;;;;;;;;;;;;;;3.59;64.23;95898.69;4879861;29;19968;-76
2022/04/05 03:47:13;;;;;;;;;;;;;;;3.60;63.92;95894.31;4879805;29;20422;-76
2022/04/05 03:49:39;;;;;;;;;;;;;;;3.60;64.66;95905.47;4879647;29;19957;-76
2022/04/05 03:52:05;;;;;;;;;;;;;;;3.61;64.41;95904.50;4879579;29;19962;-76
2022/04/05 03:54:31;;;;;;;;;;;;;;;3.62;64.06;95895.72;4880065;29;19967;-76
2022/04/05 03:56:57;;;;;;;;;;;;;;;3.62;63.98;95892.31;4879649;29;20462;-76
2022/04/05 03:59:23;;;;;;;;;;;;;;;3.62;63.89;95890.53;4879010;29;20345;-76
2022/04/05 04:01:49;;;;;;;;;;;;;;;3.61;63.93;95885.50;4862894;29;20042;-76
2022/04/05 04:04:14;;;;;;;;;;;;;;;3.61;64.04;95895.88;4879915;29;20029;-75
2022/04/05 04:06:40;;;;;;;;;;;;;;;3.60;63.92;95892.50;4879482;29;20079;-76
2022/04/05 04:09:06;;;;;;;;;;;;;;;3.60;63.86;95876.94;4879576;29;19965;-76
2022/04/05 04:11:32;;;;;;;;;;;;;;;3.61;63.88;95885.50;4879883;29;20322;-76
2022/04/05 04:13:58;;;;;;;;;;;;;;;3.60;63.59;95876.16;4879693;29;20376;-75
2022/04/05 04:16:24;;;;;;;;;;;;;;;3.60;64.04;95883.94;4879635;29;19973;-76
2022/04/05 04:18:50;;;;;;;;;;;;;;;3.60;63.96;95879.53;4879450;29;19991;-76
2022/04/05 04:21:16;;;;;;;;;;;;;;;3.61;64.32;95896.72;4880023;29;19965;-75
2022/04/05 04:23:42;;;;;;;;;;;;;;;3.60;63.89;95889.91;4879488;29;19970;-75
2022/04/05 04:26:08;;;;;;;;;;;;;;;3.60;63.99;95895.09;4879314;29;20017;-76
2022/04/05 04:28:34;;;;;;;;;;;;;;;3.61;63.96;95890.69;4879458;29;20005;-75
2022/04/05 04:30:59;;;;;;;;;;;;;;;3.61;64.13;95881.16;4879018;29;19966;-76
2022/04/05 04:33:25;;;;;;;;;;;;;;;3.61;63.93;95885.50;4879496;29;19970;-76
2022/04/05 04:35:52;;;;;;;;;;;;;;;3.61;63.94;95878.56;4879095;29;20060;-75
2022/04/05 04:38:18;;;;;;;;;;;;;;;3.63;63.83;95891.31;4880239;29;19961;-76
2022/04/05 04:40:45;;;;;;;;;;;;;;;3.64;64.09;95888.53;4882802;29;19965;-76
2022/04/05 04:43:12;;;;;;;;;;;;;;;3.63;63.50;95879.19;4882744;29;19963;-75
2022/04/05 04:45:38;;;;;;;;;;;;;;;3.62;63.57;95874.97;4882576;29;19952;-76
2022/04/05 04:48:04;;;;;;;;;;;;;;;3.63;63.57;95879.19;4882628;29;20304;-76
2022/04/05 04:50:30;;;;;;;;;;;;;;;3.65;63.49;95877.19;4882362;29;20054;-76
2022/04/05 04:52:56;;;;;;;;;;;;;;;3.66;63.18;95880.59;4882510;29;19974;-76
2022/04/05 04:55:24;;;;;;;;;;;;;;;3.63;64.00;95892.16;4882532;29;20029;-76
2022/04/05 04:57:51;;;;;;;;;;;;;;;3.62;63.82;95892.31;4882298;29;19953;-76
2022/04/05 05:00:17;;;;;;;;;;;;;;;3.62;64.18;95900.91;4882197;29;19965;-76
2022/04/05 05:02:43;;;;;;;;;;;;;;;3.62;64.84;95900.91;4882881;29;19966;-76
2022/04/05 05:05:09;;;;;;;;;;;;;;;3.62;64.33;95902.69;4865699;29;19956;-76
2022/04/05 05:07:35;;;;;;;;;;;;;;;3.62;64.53;95913.84;4882341;29;19957;-76
2022/04/05 05:10:01;;;;;;;;;;;;;;;3.64;64.50;95913.69;4882643;29;20013;-76
2022/04/05 05:12:27;;;;;;;;;;;;;;;3.62;65.46;95921.63;4882518;29;19963;-76
2022/04/05 05:14:53;;;;;;;;;;;;;;;3.63;65.54;95919.84;4882315;29;19969;-76
2022/04/05 05:17:18;;;;;;;;;;;;;;;3.63;65.57;95915.47;4881975;29;19969;-76
2022/04/05 05:19:44;;;;;;;;;;;;;;;3.62;65.63;95911.25;4882291;29;20011;-76
2022/04/05 05:22:10;;;;;;;;;;;;;;;3.62;65.69;95910.47;4882074;29;20340;-76
2022/04/05 05:24:36;;;;;;;;;;;;;;;3.60;66.75;95915.03;4882369;29;19953;-76
2022/04/05 05:27:02;;;;;;;;;;;;;;;3.58;66.66;95909.25;4881867;29;20436;-75
2022/04/05 05:29:28;;;;;;;;;;;;;;;3.56;67.45;95909.41;4881688;29;19970;-76
2022/04/05 05:31:54;;;;;;;;;;;;;;;3.55;67.35;95907.00;4882268;29;20005;-76
2022/04/05 05:34:22;;;;;;;;;;;;;;;3.56;68.42;95911.22;4881859;29;20057;-76
2022/04/05 05:36:49;;;;;;;;;;;;;;;3.51;68.09;95911.78;4882580;29;19960;-76
2022/04/05 05:39:15;;;;;;;;;;;;;;;3.49;68.31;95905.19;4881624;29;19971;-76
2022/04/05 05:41:40;;;;;;;;;;;;;;;3.47;67.83;95899.38;4881602;29;19965;-76
2022/04/05 05:44:06;;;;;;;;;;;;;;;3.48;68.59;95916.53;4881664;29;19959;-76
2022/04/05 05:46:32;;;;;;;;;;;;;;;3.47;68.95;95931.28;4881616;29;19954;-76
2022/04/05 05:48:58;;;;;;;;;;;;;;;3.48;68.86;95919.91;4881554;29;19958;-76
2022/04/05 05:51:24;;;;;;;;;;;;;;;3.51;68.09;95921.31;4880761;29;20491;-76
2022/04/05 05:53:50;;;;;;;;;;;;;;;3.48;69.25;95922.50;4881515;29;19957;-76
2022/04/05 05:56:16;;;;;;;;;;;;;;;3.51;68.82;95927.34;4881207;29;20024;-76
2022/04/05 05:58:41;;;;;;;;;;;;;;;3.53;68.87;95933.13;4881144;29;19994;-76
2022/04/05 06:01:07;;;;;;;;;;;;;;;3.56;68.89;95929.38;4881709;29;20013;-75
2022/04/05 06:03:33;;;;;;;;;;;;;;;3.56;69.13;95939.72;4881165;29;20017;-75
2022/04/05 06:05:59;;;;;;;;;;;;;;;3.58;68.82;95940.34;4881447;29;19970;-76
2022/04/05 06:08:25;;;;;;;;;;;;;;;3.61;68.98;95948.56;4881200;29;20056;-76
2022/04/05 06:10:51;;;;;;;;;;;;;;;3.66;68.61;95948.00;4880880;29;20031;-76
2022/04/05 06:13:17;;;;;;;;;;;;;;;3.70;68.85;95969.19;4881224;29;19960;-76
2022/04/05 06:15:43;;;;;;;;;;;;;;;3.72;68.45;95955.03;4880851;29;19970;-76
2022/04/05 06:18:08;;;;;;;;;;;;;;;3.73;68.98;95971.41;4880865;29;19990;-76
2022/04/05 06:20:34;;;;;;;;;;;;;;;3.76;68.44;95947.66;4880952;29;20450;-76
2022/04/05 06:23:01;;;;;;;;;;;;;;;3.79;69.23;95961.06;4881186;29;20015;-79
2022/04/05 06:25:29;;;;;;;;;;;;;;;3.83;69.64;95959.72;4881014;29;19963;-77
2022/04/05 06:27:55;;;;;;;;;;;;;;;3.86;69.06;95959.34;4880528;29;20316;-76
2022/04/05 06:30:21;;;;;;;;;;;;;;;3.89;68.23;95960.75;4881297;29;19954;-76
2022/04/05 06:32:47;;;;;;;;;;;;;;;3.91;68.33;95965.78;4880691;29;19960;-76
2022/04/05 06:35:13;;;;;;;;;;;;;;;3.93;68.68;95961.19;4880589;29;19976;-76
2022/04/05 06:37:43;;;;;;;;;;;;;;;3.96;68.88;95968.59;4880705;29;19948;-76
2022/04/05 06:40:09;;;;;;;;;;;;;;;3.98;68.76;95971.81;4880520;29;19961;-78
2022/04/05 06:42:41;;;;;;;;;;;;;;;4.00;69.30;95969.81;4880424;29;20466;-76
2022/04/05 06:45:11;;;;;;;;;;;;;;;4.05;68.74;95968.28;4880920;29;20323;-76
2022/04/05 06:47:37;;;;;;;;;;;;;;;4.12;68.62;95967.53;4880436;29;19962;-76
2022/04/05 06:50:07;;;;;;;;;;;;;;;4.18;69.08;95966.75;4880433;29;19971;-76
2022/04/05 06:52:35;;;;;;;;;;;;;;;4.23;68.45;95948.81;4880334;29;20330;-77
2022/04/05 06:55:01;;;;;;;;;;;;;;;4.29;67.69;95932.50;4880169;29;20422;-76
2022/04/05 06:57:27;;;;;;;;;;;;;;;4.32;67.73;95937.28;4863944;29;19991;-76
2022/04/05 06:59:52;;;;;;;;;;;;;;;4.36;67.73;95938.50;4880401;29;20043;-76
2022/04/05 07:02:18;;;;;;;;;;;;;;;4.43;67.75;95946.34;4878217;29;20006;-76
2022/04/05 07:04:44;;;;;;;;;;;;;;;4.50;67.46;95944.59;4880286;29;20059;-76
2022/04/05 07:07:10;;;;;;;;;;;;;;;4.59;67.10;95937.44;4880050;29;19970;-76
2022/04/05 07:09:36;;;;;;;;;;;;;;;4.59;67.01;95945.22;4880296;29;19965;-76
2022/04/05 07:12:02;;;;;;;;;;;;;;;4.61;66.80;95940.66;4880370;29;19995;-76
2022/04/05 07:14:28;;;;;;;;;;;;;;;4.66;66.98;95946.06;4880179;29;19956;-76
2022/04/05 07:16:54;;;;;;;;;;;;;;;4.76;67.20;95948.31;4879785;29;20518;-76
2022/04/05 07:19:20;;;;;;;;;;;;;;;4.82;66.69;95942.34;4880211;29;20031;-76
2022/04/05 07:21:46;;;;;;;;;;;;;;;4.90;66.77;95934.38;4879868;29;20057;-78
2022/04/05 07:24:12;;;;;;;;;;;;;;;4.98;66.63;95936.81;4879945;29;20318;-76
2022/04/05 07:26:38;;;;;;;;;;;;;;;5.08;66.04;95936.41;4880396;29;20407;-77
2022/04/05 07:29:03;;;;;;;;;;;;;;;5.15;65.99;95941.66;4879981;29;19996;-76
2022/04/05 07:31:29;;;;;;;;;;;;;;;5.20;65.54;95940.06;4879869;29;20293;-77
2022/04/05 07:33:55;;;;;;;;;;;;;;;5.24;65.11;95924.88;4880373;29;19957;-76
2022/04/05 07:36:21;;;;;;;;;;;;;;;5.24;65.52;95930.88;4879616;29;19963;-76
2022/04/05 07:38:47;;;;;;;;;;;;;;;5.26;65.50;95933.28;4880183;29;19966;-76
2022/04/05 07:41:13;;;;;;;;;;;;;;;5.33;65.44;95936.69;4863232;29;20006;-76
2022/04/05 07:43:39;;;;;;;;;;;;;;;5.43;65.25;95928.50;4879937;29;19977;-77
2022/04/05 07:46:04;;;;;;;;;;;;;;;5.53;65.40;95922.94;4880118;29;20043;-76
2022/04/05 07:48:31;;;;;;;;;;;;;;;5.58;65.10;95918.72;4880065;29;19964;-76
2022/04/05 07:50:57;;;;;;;;;;;;;;;5.67;65.10;95920.13;4879525;29;20404;-76
2022/04/05 07:53:23;;;;;;;;;;;;;;;5.74;64.80;95911.53;4879886;29;19965;-76
2022/04/05 07:55:49;;;;;;;;;;;;;;;5.80;64.92;95919.34;4879793;29;20079;-76
2022/04/05 07:58:15;;;;;;;;;;;;;;;5.81;64.59;95907.91;4879759;29;20299;-76
2022/04/05 08:00:41;;;;;;;;;;;;;;;5.84;64.74;95912.72;4879921;29;19992;-76
2022/04/05 08:03:07;;;;;;;;;;;;;;;5.93;64.60;95909.94;4879572;29;19960;-76
2022/04/05 08:05:33;;;;;;;;;;;;;;;6.01;65.56;95913.16;4879403;29;19956;-76
2022/04/05 08:07:58;;;;;;;;;;;;;;;6.08;64.55;95916.53;4879624;29;19983;-76
2022/04/05 08:10:24;;;;;;;;;;;;;;;6.10;64.42;95914.53;4879385;29;20058;-77
2022/04/05 08:12:50;;;;;;;;;;;;;;;6.09;63.84;95909.53;4879949;29;19966;-76
2022/04/05 08:15:18;;;;;;;;;;;;;;;6.03;63.59;95916.34;4866779;29;19972;-77
2022/04/05 08:17:45;;;;;;;;;;;;;;;5.97;64.21;95914.56;4882919;29;19970;-76
2022/04/05 08:20:11;;;;;;;;;;;;;;;5.94;63.97;95916.72;4882867;29;20007;-77
2022/04/05 08:22:37;;;;;;;;;;;;;;;5.93;64.43;95923.72;4872234;29;19957;-77
2022/04/05 08:25:04;;;;;;;;;;;;;;;5.96;64.57;95936.38;4882909;29;19955;-76
2022/04/05 08:27:30;;;;;;;;;;;;;;;5.97;64.55;95929.38;4883355;29;20386;-76
2022/04/05 08:29:56;;;;;;;;;;;;;;;5.97;64.18;95922.34;4866419;29;19971;-76
2022/04/05 08:32:22;;;;;;;;;;;;;;;5.97;64.21;95921.56;4882876;29;19959;-76
2022/04/05 08:34:47;;;;;;;;;;;;;;;5.92;64.30;95923.94;4882934;29;20406;-76
2022/04/05 08:37:13;;;;;;;;;;;;;;;5.90;64.60;95924.94;4882544;29;19977;-76
2022/04/05 08:39:40;;;;;;;;;;;;;;;5.87;64.46;95927.94;4883174;29;19959;-77
2022/04/05 08:42:07;;;;;;;;;;;;;;;5.85;64.38;95922.13;4882541;29;19954;-76
2022/04/05 08:44:33;;;;;;;;;;;;;;;5.86;64.57;95921.13;4882901;29;19979;-77
2022/04/05 08:46:59;;;;;;;;;;;;;;;5.88;64.64;95921.75;4882817;29;20377;-76
2022/04/05 08:49:27;;;;;;;;;;;;;;;5.90;64.85;95931.97;4882528;29;19969;-76
2022/04/05 08:51:52;;;;;;;;;;;;;;;5.90;64.60;95932.75;4882709;29;19955;-76
2022/04/05 08:54:18;;;;;;;;;;;;;;;5.88;64.93;95939.94;4865861;29;20378;-76
2022/04/05 08:56:46;;;;;;;;;;;;;;;5.89;65.23;95949.34;4882276;29;19976;-76
2022/04/05 08:59:11;;;;;;;;;;;;;;;5.94;65.16;95961.75;4882524;29;20324;-76
2022/04/05 09:01:38;;;;;;;;;;;;;;;5.98;65.01;95942.16;4882454;29;20045;-76
2022/04/05 09:04:04;;;;;;;;;;;;;;;6.05;65.20;95950.00;4882202;29;19956;-76
2022/04/05 09:06:31;;;;;;;;;;;;;;;6.14;65.91;95950.59;4882392;29;19959;-76
2022/04/05 09:08:58;;;;;;;;;;;;;;;6.21;65.47;95940.94;4882062;29;19953;-77
2022/04/05 09:11:27;;;;;;;;;;;;;;;6.28;65.35;95944.38;4882749;29;19957;-76
2022/04/05 09:13:59;;;;;;;;;;;;;;;6.34;64.97;95938.34;4882383;29;19958;-76
2022/04/05 09:16:28;;;;;;;;;;;;;;;6.42;64.80;95932.91;4881875;29;20327;-77
2022/04/05 09:18:54;;;;;;;;;;;;;;;6.49;65.08;95941.50;4882437;29;19981;-76
2022/04/05 09:21:20;;;;;;;;;;;;;;;6.59;65.08;95941.06;4865294;29;19966;-77
2022/04/05 09:23:47;;;;;;;;;;;;;;;6.65;65.16;95942.06;4882039;29;19990;-76
2022/04/05 09:26:14;;;;;;;;;;;;;;;6.68;65.13;95944.28;4880906;29;19967;-76
2022/04/05 09:28:44;;;;;;;;;;;;;;;6.73;64.96;95938.44;4882119;29;19963;-76
2022/04/05 09:31:12;;;;;;;;;;;;;;;6.79;65.04;95940.22;4881571;29;19964;-76
2022/04/05 09:33:39;;;;;;;;;;;;;;;6.79;65.06;95945.44;4881990;29;19962;-77
2022/04/05 09:36:32;;;;;;;;;;;;;;;6.76;65.60;95951.88;4865055;29;19981;-76
2022/04/05 09:39:08;;;;;;;;;;;;;;;6.73;65.63;95944.44;4881810;29;20334;-76
2022/04/05 09:41:34;;;;;;;;;;;;;;;6.70;65.95;95940.44;4881763;29;19961;-77
2022/04/05 09:44:01;;;;;;;;;;;;;;;6.70;65.88;95944.88;4881362;29;20031;-76
2022/04/05 09:46:28;;;;;;;;;;;;;;;6.73;66.05;95947.03;4881429;29;19968;-77
2022/04/05 09:49:00;;;;;;;;;;;;;;;6.71;65.45;95936.81;4881624;29;19970;-77
2022/04/05 09:51:26;;;;;;;;;;;;;;;6.71;65.63;95939.44;4881624;29;19966;-77
2022/04/05 09:53:55;;;;;;;;;;;;;;;6.73;66.18;95938.44;4881523;29;19957;-77
2022/04/05 09:56:26;;;;;;;;;;;;;;;6.75;66.21;95936.44;4881247;29;20355;-77
2022/04/05 09:58:57;;;;;;;;;;;;;;;6.80;66.24;95945.22;4881663;29;19954;-76
2022/04/05 10:01:24;;;;;;;;;;;;;;;6.84;66.39;95940.38;4881687;29;19960;-76
2022/04/05 10:03:57;;;;;;;;;;;;;;;6.91;66.37;95949.00;4881329;29;19955;-77
2022/04/05 10:06:24;;;;;;;;;;;;;;;6.96;66.45;95953.59;4881138;29;19952;-77
2022/04/05 10:08:50;;;;;;;;;;;;;;;7.00;66.68;95949.56;4880923;29;19968;-76
2022/04/05 10:11:16;;;;;;;;;;;;;;;7.04;66.58;95955.97;4881199;29;19965;-77
2022/04/05 10:13:41;;;;;;;;;;;;;;;7.08;66.67;95955.34;4881352;29;20477;-77
2022/04/05 10:16:08;;;;;;;;;;;;;;;7.09;67.00;95958.75;4864440;29;20386;-77
2022/04/05 10:18:35;;;;;;;;;;;;;;;7.10;67.05;95962.97;4881003;29;19988;-77
2022/04/05 10:21:02;;;;;;;;;;;;;;;7.11;67.78;95969.75;4880742;29;19957;-76
2022/04/05 10:23:28;;;;;;;;;;;;;;;7.15;68.20;95970.16;4881196;29;20316;-77
2022/04/05 10:25:55;;;;;;;;;;;;;;;7.15;67.42;95970.94;4868593;29;19966;-76
2022/04/05 10:28:26;;;;;;;;;;;;;;;7.15;69.24;95977.97;4880768;29;19973;-77
2022/04/05 10:31:01;;;;;;;;;;;;;;;7.14;68.93;95978.97;4880729;29;19965;-77
2022/04/05 10:33:34;;;;;;;;;;;;;;;7.19;68.85;95974.75;4880779;29;19967;-76
2022/04/05 10:36:00;;;;;;;;;;;;;;;7.21;68.59;95977.94;4880356;29;19996;-76
2022/04/05 10:38:27;;;;;;;;;;;;;;;7.21;68.38;95969.31;4880739;29;19961;-77
2022/04/05 10:41:10;;;;;;;;;;;;;;;7.20;69.02;95976.34;4880812;29;19953;-77
2022/04/05 10:43:38;;;;;;;;;;;;;;;7.23;69.56;95975.13;4880684;29;19967;-77
2022/04/05 10:46:05;;;;;;;;;;;;;;;7.25;69.58;95976.53;4880629;29;19967;-77
2022/04/05 10:48:31;;;;;;;;;;;;;;;7.26;70.26;95974.69;4880945;29;20314;-78
2022/04/05 10:51:00;;;;;;;;;;;;;;;7.25;69.80;95968.69;4880421;29;19963;-77
2022/04/05 10:53:33;;;;;;;;;;;;;;;7.26;69.78;95969.50;4880642;29;19973;-77
2022/04/05 10:56:07;;;;;;;;;;;;;;;7.24;70.53;95967.06;4880129;29;19982;-77
2022/04/05 10:58:37;;;;;;;;;;;;;;;7.25;69.64;95967.91;4880182;29;19969;-77
2022/04/05 11:01:11;;;;;;;;;;;;;;;7.24;70.08;95976.72;4879229;29;19952;-77
2022/04/05 11:03:37;;;;;;;;;;;;;;;7.20;69.79;95967.72;4880167;29;19952;-77
2022/04/05 11:06:03;;;;;;;;;;;;;;;7.21;69.33;95966.72;4880344;29;20303;-77
2022/04/05 11:08:30;;;;;;;;;;;;;;;7.21;68.12;95956.28;4880335;29;20415;-77
2022/04/05 11:10:59;;;;;;;;;;;;;;;7.18;68.68;95959.28;4880169;29;19959;-77
2022/04/05 11:13:35;;;;;;;;;;;;;;;7.16;68.96;95963.91;4880258;29;20335;-76
2022/04/05 11:16:02;;;;;;;;;;;;;;;7.16;68.65;95962.13;4881064;29;20332;-76
2022/04/05 11:18:29;;;;;;;;;;;;;;;7.15;68.39;95968.34;4880864;29;20341;-76
2022/04/05 11:20:57;;;;;;;;;;;;;;;7.15;68.82;95968.34;4880025;29;20148;-76
2022/04/05 11:23:39;;;;;;;;;;;;;;;7.13;68.38;95965.13;4879879;29;20208;-77
2022/04/05 11:26:24;;;;;;;;;;;;;;;7.12;69.07;95968.78;4879860;29;20427;-77
2022/04/05 11:28:50;;;;;;;;;;;;;;;7.07;69.42;95977.19;4879898;29;19958;-77
2022/04/05 11:31:31;;;;;;;;;;;;;;;7.02;69.12;95984.03;4879956;29;19967;-76
2022/04/05 11:33:57;;;;;;;;;;;;;;;6.97;69.53;95979.47;4879743;29;19969;-77
2022/04/05 11:36:25;;;;;;;;;;;;;;;6.96;69.72;95980.44;4879851;29;19981;-76
2022/04/05 11:38:58;;;;;;;;;;;;;;;6.99;70.12;95976.63;4879733;29;20314;-77
2022/04/05 11:41:25;;;;;;;;;;;;;;;7.00;70.51;95984.25;4880060;29;19981;-77
2022/04/05 11:43:52;;;;;;;;;;;;;;;7.02;70.38;95982.22;4879803;29;20425;-77
2022/04/05 11:46:37;;;;;;;;;;;;;;;7.05;70.44;95986.22;4871500;29;20392;-77
2022/04/05 11:49:08;;;;;;;;;;;;;;;7.10;70.14;95981.22;4882289;29;19971;-76
2022/04/05 11:51:35;;;;;;;;;;;;;;;7.14;70.36;95971.16;4883706;29;20290;-77
2022/04/05 11:54:03;;;;;;;;;;;;;;;7.13;70.15;95961.75;4883897;29;20358;-76
2022/04/05 11:56:29;;;;;;;;;;;;;;;7.17;69.85;95963.72;4882218;29;19970;-77
2022/04/05 11:58:56;;;;;;;;;;;;;;;7.21;69.49;95957.09;4883499;29;19965;-77
2022/04/05 12:01:26;;;;;;;;;;;;;;;7.29;69.98;95951.63;4883647;29;19963;-77
2022/04/05 12:03:54;;;;;;;;;;;;;;;7.40;69.82;95949.38;4883284;29;19957;-77
2022/04/05 12:06:21;;;;;;;;;;;;;;;7.47;69.05;95945.69;4883364;29;19961;-77
2022/04/05 12:08:48;;;;;;;;;;;;;;;7.54;68.54;95943.06;4883667;29;19963;-76
2022/04/05 12:11:18;;;;;;;;;;;;;;;7.60;68.14;95936.19;4883236;29;19971;-77
2022/04/05 12:14:00;;;;;;;;;;;;;;;7.67;68.18;95942.16;4883588;29;19958;-77
2022/04/05 12:16:42;;;;;;;;;;;;;;;7.73;67.82;95944.72;4883582;29;19990;-77
2022/04/05 12:19:08;;;;;;;;;;;;;;;7.83;68.27;95940.81;4882937;29;19989;-77
2022/04/05 12:21:34;;;;;;;;;;;;;;;7.91;68.24;95943.19;4882932;29;19964;-77
2022/04/05 12:24:00;;;;;;;;;;;;;;;7.95;68.04;95940.94;4883004;29;19987;-77
2022/04/05 12:26:30;;;;;;;;;;;;;;;7.97;68.01;95941.53;4883325;29;19959;-77
2022/04/05 12:28:57;;;;;;;;;;;;;;;8.03;68.74;95946.69;4882364;29;19952;-76
2022/04/05 12:31:28;;;;;;;;;;;;;;;8.06;67.85;95938.47;4883112;29;19970;-77
2022/04/05 12:33:55;;;;;;;;;;;;;;;8.11;67.95;95940.41;4883040;29;19961;-77
2022/04/05 12:36:21;;;;;;;;;;;;;;;8.16;68.17;95939.78;4882759;29;19972;-77
2022/04/05 12:38:48;;;;;;;;;;;;;;;8.24;67.78;95929.06;4882857;29;19963;-78
2022/04/05 12:41:18;;;;;;;;;;;;;;;8.32;68.14;95923.56;4882964;29;20321;-77
2022/04/05 12:43:44;;;;;;;;;;;;;;;8.34;67.95;95934.59;4882705;29;19955;-77
2022/04/05 12:46:49;;;;;;;;;;;;;;;8.36;68.15;95940.38;4867162;29;19966;-77
2022/04/05 12:49:38;;;;;;;;;;;;;;;8.36;67.78;95935.16;4882946;29;19969;-77
2022/04/05 12:52:06;;;;;;;;;;;;;;;8.34;67.94;95940.59;4882434;29;19957;-77
2022/04/05 12:54:33;;;;;;;;;;;;;;;8.31;67.84;95938.41;4882579;29;19956;-77
2022/04/05 12:57:17;;;;;;;;;;;;;;;8.30;67.87;95946.47;4882502;29;19978;-76